TimeEDT,TemperatureF,Dew PointF,Humidity,Sea Level PressureIn,VisibilityMPH,Wind Direction,Wind SpeedMPH,Gust SpeedMPH,PrecipitationIn,Events,Conditions,WindDirDegrees,DateUTC
12:53 AM,75.9,70.0,82,29.95,10.0,SE,10.4,-,N/A,,Scattered Clouds,140,2013-05-22 04:53:00
1:53 AM,75.0,69.1,82,29.94,10.0,SE,8.1,-,N/A,,Mostly Cloudy,140,2013-05-22 05:53:00
2:53 AM,75.0,69.1,82,29.93,10.0,SE,10.4,-,N/A,,Partly Cloudy,140,2013-05-22 06:53:00
3:53 AM,73.9,69.1,85,29.91,10.0,SE,8.1,-,N/A,,Mostly Cloudy,130,2013-05-22 07:53:00
4:03 AM,75.0,69.1,82,29.91,10.0,ESE,6.9,-,N/A,,Overcast,120,2013-05-22 08:03:00
4:53 AM,75.0,69.1,82,29.91,10.0,SSE,8.1,-,N/A,,Overcast,150,2013-05-22 08:53:00
5:53 AM,75.0,69.1,82,29.91,10.0,SSE,10.4,-,N/A,,Overcast,160,2013-05-22 09:53:00
6:53 AM,73.9,70.0,87,29.93,10.0,North,-9999.0,-,N/A,,Overcast,0,2013-05-22 10:53:00
7:12 AM,73.9,70.0,87,29.93,10.0,South,11.5,-,N/A,,Overcast,180,2013-05-22 11:12:00
7:53 AM,73.9,70.0,87,29.94,10.0,SSE,6.9,-,N/A,,Overcast,150,2013-05-22 11:53:00
8:06 AM,73.9,70.0,87,29.94,10.0,South,6.9,-,N/A,,Overcast,180,2013-05-22 12:06:00
8:53 AM,73.9,70.0,87,29.96,10.0,South,4.6,-,N/A,,Overcast,180,2013-05-22 12:53:00
9:03 AM,75.0,70.0,84,29.96,10.0,Calm,Calm,-,N/A,,Overcast,0,2013-05-22 13:03:00
9:18 AM,75.0,70.0,84,29.96,10.0,SSE,3.5,-,N/A,,Overcast,150,2013-05-22 13:18:00
10:53 AM,79.0,72.0,79,29.97,10.0,East,5.8,-,N/A,,Unknown,90,2013-05-22 14:53:00
11:53 AM,80.1,72.0,76,29.97,10.0,SE,4.6,-,N/A,,Clear,140,2013-05-22 15:53:00
12:53 PM,82.0,72.0,71,29.96,10.0,South,8.1,-,N/A,,Scattered Clouds,170,2013-05-22 16:53:00
1:18 PM,81.0,71.1,72,29.95,10.0,SSE,5.8,-,N/A,,Mostly Cloudy,150,2013-05-22 17:18:00
1:29 PM,81.0,71.1,72,29.95,10.0,SE,4.6,-,N/A,,Mostly Cloudy,140,2013-05-22 17:29:00
1:53 PM,80.1,72.0,76,29.95,4.0,ENE,5.8,-,0.05,Rain,Light Rain,60,2013-05-22 17:53:00
2:53 PM,84.0,73.9,72,29.93,10.0,ESE,6.9,-,0.00,,Partly Cloudy,110,2013-05-22 18:53:00
3:53 PM,84.9,66.9,55,29.90,10.0,West,10.4,-,N/A,,Scattered Clouds,280,2013-05-22 19:53:00
4:53 PM,84.9,66.9,55,29.88,10.0,WNW,10.4,-,N/A,,Clear,290,2013-05-22 20:53:00
5:53 PM,86.0,66.9,53,29.88,10.0,NNW,9.2,-,N/A,,Clear,330,2013-05-22 21:53:00
6:53 PM,84.9,68.0,57,29.90,10.0,North,9.2,-,N/A,,Clear,350,2013-05-22 22:53:00
7:53 PM,82.9,69.1,63,29.91,10.0,North,6.9,-,N/A,,Partly Cloudy,360,2013-05-22 23:53:00
8:53 PM,81.0,71.1,72,29.92,10.0,SE,10.4,-,N/A,,Clear,140,2013-05-23 00:53:00
9:53 PM,80.1,71.1,74,29.93,10.0,SE,8.1,-,N/A,,Clear,140,2013-05-23 01:53:00
10:53 PM,79.0,70.0,74,29.95,10.0,SE,3.5,-,N/A,,Clear,130,2013-05-23 02:53:00
11:53 PM,79.0,72.0,79,29.94,10.0,ESE,9.2,-,N/A,,Clear,120,2013-05-23 03:53:00